Hlavní strana
METAR-TAF:

METAR-TAF

Letiště :

Mezinárodní letiště Ezeiza

Ezeiza, Argentina

zeměpisná šířka: 34-49S, zeměpisná délka: 058-32W, výška: 20 m

Aktuální stav počasí

Zpráva byla vytvořena před 8 minutami, v 05:00 UTC
Západojihozápadní vítr 2 kt
Teplota 3°C
Vlhkost vzduchu 93%
Tlak 1023 hPa
Viditelnost: 9000 m
Polojasno ve výšce 3300 ft

METAR: SAEZ 060500Z 25002KT 9000 SCT033 03/02 Q1023 TEMPO 5000 BR NSC

Čas: 02:08 (05:08 UTC)

Předpověď počasí

Předpověď platná od 06 v 03 UTC do 06 v 24 UTC
vítr z různých směrů 3 kt
Viditelnost: 3000 m
kouřmo
Změna
od 06 v 04 UTC do 06 v 06 UTC
Viditelnost: 0800 m
mlha
Změna
od 06 v 11 UTC do 06 v 13 UTC
Jižní vítr 5 kt
Viditelnost 10 km a více
Žádná oblačnost pod 1500 m, nevyskytují se cumulonimby.

TAF: SAEZ 0603/0624 VRB03KT 3000 BR NSC TX12/0618Z TN00/0611Z BECMG 0604/0606 0800 FG NSC BECMG 0611/0613 18005KT CAVOK

Stav a předpovědi počasí z více než 4 000 letišť (zprávy METAR a TAF).

Červené a žluté tečky na mapě představují dostupné meteorologické stanice.

Když kurzor umístíte na tečku, zobrazí se název stanice.

Pak kliknutím zobrazíte stav a předpověď počasí.

Chcete-li změnit mapu, kliknutím na zelené tlačítko se znaménkem +mapu přiblížíte, kliknutím na zelené tlačítko se znaménkem – mapu oddálíte a kliknutím na zelené šipky přejdete na sousední mapy.


METAR-TAF: